Weather at Alexandria International Airport

Public forecast

Using degrees Fahrenheit for public forecast. Weather courtesy of forecast.io.

Current aviation weather report (METAR) for Alexandria International Airport

2024/05/30 15:53 (retrieved 47 minutes ago)

KAEX 301553Z 06005KT 9SM BKN060 27/22 A3005 RMK AO2 LTG DSNT SE SLP177 T02670222

Aviation forecast (TAF) for Alexandria International Airport

2024/05/30 12:22 (retrieved 4 hours ago)

TAF KAEX 301120Z 3012/3112 VRB02KT 4SM BR SCT060 FM301500 11004KT P6SM BKN030 FM301800 14006KT P6SM BKN040 FM310200 14007KT P6SM VCTS FEW035CB SCT090 PROB30 3102/3104 4SM TSRA BR BKN040CB